Time;durP1;ratioP1;P1;durP2;ratioP2;P2;SDS_P1;SDS_P2;PMS_P1;PMS_P2;Temp;Humidity;BMP_temperature;BMP_pressure;BME280_temperature;BME280_humidity;BME280_pressure;Samples;Min_cycle;Max_cycle;Signal;HPM_P1;HPM_P2
2021/05/29 00:01:22;;;;;;;14.07;12.98;;;;;;;;;;4989657;28;20522;-47
2021/05/29 00:03:47;;;;;;;14.98;13.77;;;;;;;;;;4987321;28;20182;-47
2021/05/29 00:06:12;;;;;;;15.73;14.43;;;;;;;;;;4987389;28;20209;-48
2021/05/29 00:08:37;;;;;;;15.00;13.90;;;;;;;;;;4988815;28;20216;-47
2021/05/29 00:11:03;;;;;;;15.55;14.30;;;;;;;;;;5000054;28;20204;-48
2021/05/29 00:13:29;;;;;;;13.73;12.73;;;;;;;;;;5003702;28;20190;-48
2021/05/29 00:15:54;;;;;;;15.43;14.20;;;;;;;;;;4986371;28;20831;-47
2021/05/29 00:18:19;;;;;;;14.60;13.50;;;;;;;;;;4987361;28;20605;-47
2021/05/29 00:20:45;;;;;;;16.13;14.80;;;;;;;;;;4989446;28;20184;-48
2021/05/29 00:23:11;;;;;;;14.80;13.60;;;;;;;;;;4989118;28;20174;-47
2021/05/29 00:25:36;;;;;;;15.10;13.70;;;;;;;;;;4986416;28;20182;-48
2021/05/29 00:28:01;;;;;;;15.50;14.20;;;;;;;;;;4986371;28;21196;-47
2021/05/29 00:30:27;;;;;;;14.70;13.50;;;;;;;;;;5000275;28;20709;-46
2021/05/29 00:32:52;;;;;;;15.00;13.63;;;;;;;;;;4989660;28;20521;-48
2021/05/29 00:35:17;;;;;;;17.10;15.60;;;;;;;;;;4988153;28;20547;-47
2021/05/29 00:37:44;;;;;;;16.27;14.87;;;;;;;;;;4988968;28;20264;-47
2021/05/29 00:40:10;;;;;;;15.77;14.37;;;;;;;;;;4988061;28;20221;-47
2021/05/29 00:42:35;;;;;;;15.13;13.83;;;;;;;;;;4985409;28;20652;-48
2021/05/29 00:45:00;;;;;;;16.23;14.75;;;;;;;;;;4987298;28;20182;-47
2021/05/29 00:47:27;;;;;;;14.60;13.40;;;;;;;;;;4986775;28;20208;-46
2021/05/29 00:49:52;;;;;;;13.60;12.47;;;;;;;;;;4989308;28;20210;-46
2021/05/29 00:52:18;;;;;;;13.30;12.20;;;;;;;;;;4986709;28;20600;-47
2021/05/29 00:54:44;;;;;;;11.83;10.93;;;;;;;;;;4985979;28;20392;-48
2021/05/29 00:57:09;;;;;;;14.77;13.47;;;;;;;;;;4987753;28;20664;-47
2021/05/29 00:59:36;;;;;;;12.43;11.43;;;;;;;;;;4988442;28;20716;-47
2021/05/29 01:02:01;;;;;;;12.07;11.10;;;;;;;;;;4984425;28;20239;-46
2021/05/29 01:04:26;;;;;;;12.53;11.50;;;;;;;;;;4994292;28;20601;-47
2021/05/29 01:06:51;;;;;;;12.23;11.23;;;;;;;;;;4988098;28;20884;-46
2021/05/29 01:09:16;;;;;;;12.55;11.55;;;;;;;;;;4987563;28;20671;-47
2021/05/29 01:11:42;;;;;;;12.88;11.77;;;;;;;;;;4996191;28;20767;-46
2021/05/29 01:14:07;;;;;;;13.85;12.75;;;;;;;;;;5000195;28;20173;-46
2021/05/29 01:19:05;;;;;;;12.73;11.73;;;;;;;;;;4988067;28;20240;-47
2021/05/29 01:21:31;;;;;;;13.20;12.20;;;;;;;;;;4989315;28;20712;-47
2021/05/29 01:23:56;;;;;;;14.50;13.30;;;;;;;;;;4985347;28;20703;-47
2021/05/29 01:26:21;;;;;;;14.43;13.23;;;;;;;;;;4987756;28;20237;-47
2021/05/29 01:28:53;;;;;;;13.43;12.33;;;;;;;;;;4985354;28;20209;-47
2021/05/29 01:31:18;;;;;;;13.30;12.20;;;;;;;;;;4987138;28;20220;-47
2021/05/29 01:33:43;;;;;;;13.33;12.33;;;;;;;;;;4987590;28;20655;-47
2021/05/29 01:36:10;;;;;;;14.23;13.00;;;;;;;;;;4987251;28;20195;-47
2021/05/29 01:38:37;;;;;;;13.33;12.23;;;;;;;;;;4985885;28;20208;-48
2021/05/29 01:41:07;;;;;;;14.40;13.20;;;;;;;;;;5000280;28;20619;-47
2021/05/29 01:43:39;;;;;;;13.93;12.83;;;;;;;;;;4990597;28;20616;-47
2021/05/29 01:46:05;;;;;;;13.97;12.80;;;;;;;;;;4986903;28;20660;-47
2021/05/29 01:48:34;;;;;;;13.27;12.17;;;;;;;;;;4987115;28;20648;-48
2021/05/29 01:50:59;;;;;;;12.97;11.97;;;;;;;;;;4997623;28;20745;-46
2021/05/29 01:53:24;;;;;;;14.20;12.90;;;;;;;;;;4987809;28;20633;-47
2021/05/29 01:55:49;;;;;;;13.83;12.63;;;;;;;;;;4989500;28;20553;-46
2021/05/29 01:58:15;;;;;;;15.10;13.77;;;;;;;;;;4997774;28;20257;-47
2021/05/29 02:00:40;;;;;;;13.73;12.60;;;;;;;;;;4988054;28;20181;-46
2021/05/29 02:03:05;;;;;;;11.93;11.03;;;;;;;;;;4983661;28;20232;-47
2021/05/29 02:05:31;;;;;;;12.70;11.60;;;;;;;;;;4985735;28;20778;-47
2021/05/29 02:08:14;;;;;;;12.57;11.57;;;;;;;;;;4988166;28;20175;-46
2021/05/29 02:10:41;;;;;;;12.67;11.67;;;;;;;;;;4982302;28;21198;-48
2021/05/29 02:13:08;;;;;;;12.23;11.30;;;;;;;;;;4989310;28;21207;-47
2021/05/29 02:15:34;;;;;;;12.67;11.63;;;;;;;;;;5002947;28;20615;-47
2021/05/29 02:18:01;;;;;;;15.20;13.70;;;;;;;;;;4989356;28;20573;-48
2021/05/29 02:20:46;;;;;;;28.27;14.70;;;;;;;;;;4994567;28;20695;-47
2021/05/29 02:23:13;;;;;;;34.47;12.93;;;;;;;;;;4988917;28;20688;-46
2021/05/29 02:25:39;;;;;;;11.63;10.73;;;;;;;;;;4990972;28;20596;-47
2021/05/29 02:28:04;;;;;;;11.37;10.47;;;;;;;;;;4987591;28;20628;-47
2021/05/29 02:30:29;;;;;;;12.90;11.80;;;;;;;;;;4990062;28;20252;-46
2021/05/29 02:32:55;;;;;;;13.70;12.50;;;;;;;;;;4985097;28;20187;-47
2021/05/29 02:35:20;;;;;;;12.75;11.68;;;;;;;;;;4987926;28;20207;-47
2021/05/29 02:37:45;;;;;;;12.97;11.80;;;;;;;;;;4989136;28;20262;-47
2021/05/29 02:40:11;;;;;;;12.37;11.37;;;;;;;;;;4989094;28;20166;-47
2021/05/29 02:42:37;;;;;;;13.17;12.10;;;;;;;;;;5003279;28;20638;-47
2021/05/29 02:45:02;;;;;;;11.77;10.77;;;;;;;;;;4992770;28;20615;-46
2021/05/29 02:47:27;;;;;;;17.47;15.63;;;;;;;;;;4990824;28;20245;-47
2021/05/29 02:49:52;;;;;;;12.85;11.75;;;;;;;;;;4988598;28;20207;-47
2021/05/29 02:52:18;;;;;;;12.98;11.77;;;;;;;;;;4991259;28;20181;-47
2021/05/29 02:54:43;;;;;;;12.57;11.48;;;;;;;;;;4989176;28;20180;-47
2021/05/29 02:57:12;;;;;;;13.00;11.93;;;;;;;;;;4988760;28;20185;-48
2021/05/29 02:59:38;;;;;;;13.70;12.50;;;;;;;;;;4990645;28;20170;-47
2021/05/29 03:02:04;;;;;;;13.10;11.90;;;;;;;;;;4989647;28;20613;-47
2021/05/29 03:04:29;;;;;;;12.97;11.77;;;;;;;;;;4988750;28;20184;-46
2021/05/29 03:06:55;;;;;;;13.20;12.10;;;;;;;;;;4988226;28;20605;-47
2021/05/29 03:09:20;;;;;;;13.20;11.95;;;;;;;;;;4990921;28;20247;-47
2021/05/29 03:11:45;;;;;;;13.27;12.17;;;;;;;;;;4990066;28;20222;-46
2021/05/29 03:14:10;;;;;;;14.00;12.70;;;;;;;;;;4989842;28;20182;-47
2021/05/29 03:16:36;;;;;;;13.77;12.55;;;;;;;;;;4999327;28;20601;-47
2021/05/29 03:19:01;;;;;;;13.03;11.87;;;;;;;;;;4985944;28;20550;-47
2021/05/29 03:21:27;;;;;;;11.83;10.83;;;;;;;;;;4990780;28;21022;-47
2021/05/29 03:23:52;;;;;;;12.27;11.27;;;;;;;;;;4988725;28;20181;-47
2021/05/29 03:26:17;;;;;;;12.77;11.67;;;;;;;;;;4989958;28;20211;-47
2021/05/29 03:28:42;;;;;;;12.10;11.10;;;;;;;;;;4989418;28;20196;-46
2021/05/29 03:31:07;;;;;;;11.43;10.52;;;;;;;;;;4989910;28;20235;-46
2021/05/29 03:33:32;;;;;;;11.90;10.90;;;;;;;;;;4989646;28;20667;-47
2021/05/29 03:35:57;;;;;;;11.23;10.23;;;;;;;;;;4987404;28;20201;-47
2021/05/29 03:38:23;;;;;;;11.70;10.80;;;;;;;;;;4988071;28;24573;-46
2021/05/29 03:40:48;;;;;;;11.40;10.40;;;;;;;;;;4990469;28;20175;-46
2021/05/29 03:43:14;;;;;;;10.63;9.83;;;;;;;;;;4987246;28;20812;-46
2021/05/29 03:45:39;;;;;;;12.97;11.87;;;;;;;;;;4994729;28;20170;-47
2021/05/29 03:48:04;;;;;;;10.53;9.73;;;;;;;;;;4986126;28;20648;-46
2021/05/29 03:50:30;;;;;;;10.50;9.70;;;;;;;;;;4987975;28;20239;-47
2021/05/29 03:52:55;;;;;;;10.97;10.03;;;;;;;;;;4987200;28;20181;-46
2021/05/29 03:55:21;;;;;;;10.57;9.77;;;;;;;;;;4989073;28;20553;-47
2021/05/29 03:57:47;;;;;;;11.10;10.20;;;;;;;;;;4990080;28;20185;-47
2021/05/29 04:00:14;;;;;;;9.57;8.87;;;;;;;;;;4987592;28;20615;-47
2021/05/29 04:02:40;;;;;;;9.20;8.40;;;;;;;;;;4987053;28;20931;-46
2021/05/29 04:05:05;;;;;;;9.33;8.63;;;;;;;;;;4988952;28;20585;-48
2021/05/29 04:07:30;;;;;;;9.70;9.00;;;;;;;;;;4989146;28;20192;-47
2021/05/29 04:09:56;;;;;;;10.63;9.83;;;;;;;;;;4994774;28;20274;-48
2021/05/29 04:12:21;;;;;;;10.10;9.30;;;;;;;;;;4988875;28;20265;-48
2021/05/29 04:14:46;;;;;;;10.75;9.90;;;;;;;;;;5000677;28;20185;-46
2021/05/29 04:17:12;;;;;;;12.05;11.05;;;;;;;;;;4985354;28;20183;-46
2021/05/29 04:19:37;;;;;;;11.63;10.63;;;;;;;;;;4988305;28;20174;-47
2021/05/29 04:22:03;;;;;;;11.83;10.93;;;;;;;;;;5000292;28;20738;-48
2021/05/29 04:24:28;;;;;;;11.40;10.50;;;;;;;;;;4986870;28;20627;-47
2021/05/29 04:26:53;;;;;;;10.70;9.87;;;;;;;;;;4986834;28;20170;-48
2021/05/29 04:29:18;;;;;;;11.02;10.23;;;;;;;;;;4992353;28;20220;-47
2021/05/29 04:31:43;;;;;;;12.30;11.20;;;;;;;;;;4988310;28;20233;-48
2021/05/29 04:34:08;;;;;;;13.83;12.63;;;;;;;;;;4986850;28;20270;-47
2021/05/29 04:36:34;;;;;;;12.10;11.10;;;;;;;;;;4988096;28;20188;-47
2021/05/29 04:38:59;;;;;;;11.13;10.30;;;;;;;;;;4987123;28;20177;-47
2021/05/29 04:41:24;;;;;;;12.80;11.70;;;;;;;;;;4986401;28;20182;-47
2021/05/29 04:43:49;;;;;;;13.23;12.10;;;;;;;;;;4988048;28;20412;-49
2021/05/29 04:46:15;;;;;;;13.93;12.63;;;;;;;;;;4982505;28;20186;-47
2021/05/29 04:48:40;;;;;;;15.70;14.20;;;;;;;;;;4987730;28;20974;-47
2021/05/29 04:51:12;;;;;;;13.48;12.27;;;;;;;;;;4988361;28;20167;-47
2021/05/29 04:53:37;;;;;;;12.40;11.30;;;;;;;;;;4988655;28;20211;-47
2021/05/29 04:56:02;;;;;;;12.40;11.30;;;;;;;;;;4987656;28;21164;-46
2021/05/29 04:58:28;;;;;;;11.53;10.63;;;;;;;;;;4988083;28;20235;-47
2021/05/29 05:00:53;;;;;;;11.70;10.80;;;;;;;;;;4987793;28;20283;-45
2021/05/29 05:03:18;;;;;;;12.53;11.43;;;;;;;;;;4987938;28;20677;-46
2021/05/29 05:05:44;;;;;;;13.70;12.60;;;;;;;;;;4988047;28;20171;-46
2021/05/29 05:08:09;;;;;;;13.80;12.60;;;;;;;;;;4988304;28;20182;-46
2021/05/29 05:10:34;;;;;;;13.55;12.40;;;;;;;;;;4988365;28;20221;-47
2021/05/29 05:12:59;;;;;;;12.55;11.55;;;;;;;;;;4987480;28;20758;-47
2021/05/29 05:15:24;;;;;;;14.33;13.20;;;;;;;;;;4988364;28;20178;-46
2021/05/29 05:17:49;;;;;;;14.60;13.40;;;;;;;;;;4987316;28;20174;-49
2021/05/29 05:20:16;;;;;;;12.23;11.30;;;;;;;;;;4987782;28;20178;-46
2021/05/29 05:22:42;;;;;;;12.30;11.40;;;;;;;;;;4987898;28;20176;-46
2021/05/29 05:25:07;;;;;;;14.32;13.02;;;;;;;;;;4987770;28;20622;-46
2021/05/29 05:27:32;;;;;;;14.20;12.90;;;;;;;;;;4987958;28;20271;-46
2021/05/29 05:29:58;;;;;;;13.40;12.30;;;;;;;;;;4987904;28;20248;-47
2021/05/29 05:32:23;;;;;;;13.40;12.30;;;;;;;;;;4987743;28;20189;-47
2021/05/29 05:34:49;;;;;;;16.10;14.70;;;;;;;;;;4987035;28;20986;-45
2021/05/29 05:37:14;;;;;;;14.30;13.00;;;;;;;;;;4982047;28;20267;-46
2021/05/29 05:39:39;;;;;;;15.83;14.43;;;;;;;;;;4984948;28;20539;-46
2021/05/29 05:42:05;;;;;;;15.60;14.00;;;;;;;;;;4984480;28;20200;-46
2021/05/29 05:44:30;;;;;;;16.93;15.33;;;;;;;;;;4987360;28;20180;-46
2021/05/29 05:46:55;;;;;;;15.63;14.07;;;;;;;;;;4986475;28;20183;-46
2021/05/29 05:49:20;;;;;;;16.43;14.93;;;;;;;;;;4987557;28;20291;-46
2021/05/29 05:51:45;;;;;;;18.08;16.48;;;;;;;;;;4986765;28;20184;-46
2021/05/29 05:54:10;;;;;;;26.70;21.40;;;;;;;;;;4986185;28;20197;-46
2021/05/29 05:56:36;;;;;;;16.98;15.45;;;;;;;;;;4984635;28;20603;-46
2021/05/29 05:59:02;;;;;;;17.13;15.53;;;;;;;;;;4986796;28;20177;-46
2021/05/29 06:01:27;;;;;;;17.53;15.83;;;;;;;;;;4985836;28;20188;-46
2021/05/29 06:03:53;;;;;;;16.77;15.23;;;;;;;;;;4985554;28;20621;-46
2021/05/29 06:06:18;;;;;;;19.20;17.40;;;;;;;;;;4986791;28;20673;-46
2021/05/29 06:08:43;;;;;;;18.90;17.10;;;;;;;;;;4986775;28;20205;-46
2021/05/29 06:11:08;;;;;;;17.20;15.70;;;;;;;;;;4988814;28;20355;-47
2021/05/29 06:21:11;;;;;;;19.53;17.80;;;;;;;;;;4985154;28;20620;-46
2021/05/29 06:23:36;;;;;;;54.83;36.47;;;;;;;;;;4984517;28;20216;-46
2021/05/29 06:26:02;;;;;;;22.00;19.90;;;;;;;;;;4984623;28;20691;-45
2021/05/29 06:28:27;;;;;;;65.40;39.10;;;;;;;;;;4984054;28;20289;-45
2021/05/29 06:30:52;;;;;;;61.53;36.90;;;;;;;;;;4981923;28;20226;-46
2021/05/29 06:33:17;;;;;;;24.55;21.95;;;;;;;;;;4976999;28;20735;-46
2021/05/29 06:35:43;;;;;;;28.80;25.80;;;;;;;;;;4986188;28;20568;-47
2021/05/29 06:38:08;;;;;;;25.13;22.52;;;;;;;;;;4983908;28;20181;-47
2021/05/29 06:40:33;;;;;;;25.90;23.10;;;;;;;;;;4984576;28;20261;-48
2021/05/29 06:42:58;;;;;;;21.03;18.93;;;;;;;;;;4982644;28;20170;-46
2021/05/29 06:45:24;;;;;;;31.45;28.15;;;;;;;;;;4984500;28;20182;-47
2021/05/29 06:47:49;;;;;;;24.20;21.80;;;;;;;;;;4985680;28;20282;-46
2021/05/29 06:50:15;;;;;;;83.53;47.47;;;;;;;;;;4987132;28;20214;-46
2021/05/29 06:52:44;;;;;;;51.57;35.10;;;;;;;;;;4986763;28;20225;-47
2021/05/29 07:00:36;;;;;;;33.03;29.00;;;;;;;;;;4989967;28;20601;-46
2021/05/29 07:03:02;;;;;;;32.33;28.80;;;;;;;;;;4990197;28;20562;-46
2021/05/29 07:05:27;;;;;;;26.47;23.80;;;;;;;;;;4987380;28;21937;-47
2021/05/29 07:07:52;;;;;;;20.17;18.40;;;;;;;;;;4996449;28;20216;-47
2021/05/29 07:10:17;;;;;;;26.95;24.20;;;;;;;;;;4990046;28;20227;-46
2021/05/29 07:12:42;;;;;;;21.10;19.10;;;;;;;;;;4990078;28;20181;-46
2021/05/29 07:15:08;;;;;;;24.60;22.02;;;;;;;;;;4989974;28;20180;-47
2021/05/29 07:17:38;;;;;;;20.40;18.50;;;;;;;;;;4986031;28;20263;-46
2021/05/29 07:20:03;;;;;;;17.70;15.90;;;;;;;;;;4990374;28;20182;-46
2021/05/29 07:22:28;;;;;;;17.60;16.00;;;;;;;;;;4986172;28;20591;-47
2021/05/29 07:24:54;;;;;;;14.57;13.15;;;;;;;;;;4986500;28;20246;-48
2021/05/29 07:27:19;;;;;;;13.00;11.70;;;;;;;;;;4986886;28;20214;-47
2021/05/29 07:29:44;;;;;;;15.20;13.90;;;;;;;;;;4986221;28;20634;-47
2021/05/29 07:32:09;;;;;;;11.88;10.95;;;;;;;;;;4985536;28;20194;-47
2021/05/29 07:34:34;;;;;;;11.80;10.80;;;;;;;;;;4989136;28;20275;-47
2021/05/29 07:36:59;;;;;;;11.13;10.13;;;;;;;;;;4989015;28;20183;-44
2021/05/29 07:39:25;;;;;;;11.50;10.40;;;;;;;;;;4989360;28;20214;-47
2021/05/29 07:41:50;;;;;;;12.10;11.00;;;;;;;;;;4989344;28;20176;-45
2021/05/29 07:44:15;;;;;;;10.40;9.50;;;;;;;;;;4989443;28;20179;-47
2021/05/29 07:46:40;;;;;;;13.02;10.95;;;;;;;;;;4988764;28;20638;-46
2021/05/29 07:49:06;;;;;;;12.00;11.00;;;;;;;;;;4987189;28;20295;-47
2021/05/29 07:51:35;;;;;;;11.60;10.53;;;;;;;;;;4988198;28;20238;-46
2021/05/29 07:54:01;;;;;;;12.10;10.83;;;;;;;;;;4985705;28;20595;-47
2021/05/29 07:56:26;;;;;;;12.10;11.00;;;;;;;;;;4988659;28;20661;-47
2021/05/29 07:58:53;;;;;;;12.03;11.03;;;;;;;;;;4988029;28;20176;-45
2021/05/29 08:01:19;;;;;;;10.70;9.63;;;;;;;;;;4998565;28;20211;-46
2021/05/29 08:03:45;;;;;;;11.60;10.53;;;;;;;;;;5007621;28;20601;-44
2021/05/29 08:06:21;;;;;;;10.88;9.98;;;;;;;;;;5001356;28;20690;-46
2021/05/29 08:08:46;;;;;;;10.47;9.63;;;;;;;;;;4984789;28;20226;-47
2021/05/29 08:11:30;;;;;;;10.63;9.63;;;;;;;;;;4986703;28;20653;-46
2021/05/29 08:13:56;;;;;;;11.53;10.63;;;;;;;;;;4985761;28;20244;-46
2021/05/29 08:16:22;;;;;;;11.17;10.17;;;;;;;;;;4988458;28;21110;-48
2021/05/29 08:18:47;;;;;;;9.90;9.10;;;;;;;;;;4987941;28;20216;-47
2021/05/29 08:21:13;;;;;;;10.13;9.23;;;;;;;;;;4987741;28;21138;-48
2021/05/29 08:23:39;;;;;;;9.50;8.60;;;;;;;;;;4987926;28;20177;-47
2021/05/29 08:26:04;;;;;;;9.50;8.70;;;;;;;;;;4979906;28;20180;-47
2021/05/29 08:28:29;;;;;;;9.90;9.10;;;;;;;;;;4969813;28;20787;-48
2021/05/29 08:30:55;;;;;;;9.33;8.63;;;;;;;;;;4981751;28;20236;-46
2021/05/29 08:33:20;;;;;;;7.93;7.33;;;;;;;;;;4968532;28;20176;-46
2021/05/29 08:35:45;;;;;;;8.70;7.80;;;;;;;;;;4968099;28;20206;-46
2021/05/29 08:38:10;;;;;;;8.00;7.35;;;;;;;;;;4968133;28;20284;-46
2021/05/29 08:40:35;;;;;;;9.50;8.70;;;;;;;;;;4969299;28;20193;-47
2021/05/29 08:43:01;;;;;;;9.20;8.37;;;;;;;;;;4985819;28;20248;-48
2021/05/29 08:45:26;;;;;;;9.30;8.60;;;;;;;;;;4987836;28;20188;-47
2021/05/29 08:47:52;;;;;;;8.50;7.80;;;;;;;;;;4986786;28;20640;-46
2021/05/29 08:50:17;;;;;;;8.13;7.33;;;;;;;;;;4986060;28;20250;-46
2021/05/29 08:52:42;;;;;;;8.20;7.60;;;;;;;;;;4984871;28;20274;-46
2021/05/29 08:55:08;;;;;;;7.60;6.93;;;;;;;;;;4982929;28;20606;-47
2021/05/29 08:57:34;;;;;;;8.37;7.30;;;;;;;;;;4981972;28;20189;-47
2021/05/29 09:00:02;;;;;;;7.60;7.00;;;;;;;;;;4985318;28;21206;-47
2021/05/29 09:02:28;;;;;;;8.80;7.33;;;;;;;;;;4987284;28;20183;-47
2021/05/29 09:05:07;;;;;;;7.80;7.10;;;;;;;;;;4986708;28;21039;-47
2021/05/29 09:07:32;;;;;;;6.63;6.13;;;;;;;;;;4986772;28;20601;-47
2021/05/29 09:10:13;;;;;;;7.00;6.50;;;;;;;;;;4986575;28;20655;-47
2021/05/29 09:12:57;;;;;;;8.37;7.70;;;;;;;;;;4986381;28;20995;-47
2021/05/29 09:15:22;;;;;;;6.47;5.97;;;;;;;;;;4986918;28;20995;-47
2021/05/29 09:17:48;;;;;;;6.93;6.30;;;;;;;;;;4986894;28;20643;-47
2021/05/29 09:20:14;;;;;;;7.20;6.70;;;;;;;;;;4985222;28;20272;-46
2021/05/29 09:22:40;;;;;;;6.60;6.00;;;;;;;;;;4986951;28;20805;-47
2021/05/29 09:25:10;;;;;;;7.03;6.00;;;;;;;;;;4987308;28;20622;-47
2021/05/29 09:27:36;;;;;;;7.20;6.60;;;;;;;;;;4987017;28;20639;-46
2021/05/29 09:30:05;;;;;;;8.13;6.83;;;;;;;;;;4986410;28;20675;-47
2021/05/29 09:32:33;;;;;;;7.57;6.97;;;;;;;;;;4987155;28;20250;-46
2021/05/29 09:35:03;;;;;;;7.20;6.47;;;;;;;;;;4987735;28;20607;-46
2021/05/29 09:37:28;;;;;;;8.83;7.37;;;;;;;;;;4987475;28;20615;-47
2021/05/29 09:39:55;;;;;;;6.97;6.37;;;;;;;;;;4984571;28;20596;-47
2021/05/29 09:42:25;;;;;;;7.23;6.63;;;;;;;;;;4982437;28;20184;-48
2021/05/29 09:44:50;;;;;;;7.57;6.97;;;;;;;;;;4986071;28;20629;-48
2021/05/29 09:47:18;;;;;;;6.93;6.30;;;;;;;;;;4986689;28;20616;-47
2021/05/29 09:49:53;;;;;;;7.10;6.47;;;;;;;;;;4987033;28;20489;-47
2021/05/29 09:52:26;;;;;;;8.30;7.67;;;;;;;;;;4987136;28;20606;-47
2021/05/29 09:54:52;;;;;;;7.60;7.00;;;;;;;;;;4986626;28;20592;-47
2021/05/29 09:57:17;;;;;;;6.90;6.30;;;;;;;;;;4986939;28;20576;-47
2021/05/29 09:59:52;;;;;;;6.45;5.95;;;;;;;;;;4986935;28;20594;-47
2021/05/29 10:02:17;;;;;;;7.10;6.53;;;;;;;;;;4985407;28;20188;-48
2021/05/29 10:04:42;;;;;;;6.80;6.17;;;;;;;;;;4986104;28;20701;-47
2021/05/29 10:07:10;;;;;;;7.43;6.82;;;;;;;;;;4987014;28;20431;-47
2021/05/29 10:09:35;;;;;;;6.73;6.23;;;;;;;;;;4986815;28;20350;-48
2021/05/29 10:12:01;;;;;;;7.53;6.97;;;;;;;;;;4984765;28;21229;-47
2021/05/29 10:14:29;;;;;;;7.77;7.10;;;;;;;;;;4986481;28;20174;-46
2021/05/29 10:16:56;;;;;;;8.27;6.43;;;;;;;;;;4984984;28;20700;-47
2021/05/29 10:19:22;;;;;;;6.97;6.47;;;;;;;;;;4982859;28;21210;-46
2021/05/29 10:21:50;;;;;;;6.97;6.30;;;;;;;;;;4987136;28;20998;-48
2021/05/29 10:24:16;;;;;;;8.50;7.00;;;;;;;;;;4981684;28;20617;-47
2021/05/29 10:26:42;;;;;;;6.33;5.73;;;;;;;;;;4977050;28;21413;-45
2021/05/29 10:29:08;;;;;;;6.87;6.37;;;;;;;;;;4988618;28;20572;-47
2021/05/29 10:31:36;;;;;;;7.10;6.50;;;;;;;;;;4986563;28;20721;-46
2021/05/29 10:34:02;;;;;;;7.67;6.67;;;;;;;;;;4987781;28;20721;-46
2021/05/29 10:36:44;;;;;;;12.40;6.57;;;;;;;;;;4991695;28;20698;-46
2021/05/29 10:39:22;;;;;;;6.07;5.63;;;;;;;;;;4989188;28;20178;-48
2021/05/29 10:41:51;;;;;;;6.47;5.90;;;;;;;;;;4988820;28;21166;-46
2021/05/29 10:44:35;;;;;;;5.60;5.10;;;;;;;;;;4988844;28;20605;-46
2021/05/29 10:47:14;;;;;;;5.80;5.30;;;;;;;;;;4998718;28;20620;-47
2021/05/29 10:49:52;;;;;;;6.40;5.90;;;;;;;;;;4989062;28;20657;-47
2021/05/29 10:52:29;;;;;;;5.90;5.40;;;;;;;;;;4975735;28;20601;-47
2021/05/29 10:55:06;;;;;;;5.93;5.53;;;;;;;;;;4988686;28;21193;-46
2021/05/29 10:57:51;;;;;;;7.60;6.30;;;;;;;;;;4990200;28;21266;-47
2021/05/29 11:00:34;;;;;;;7.43;6.60;;;;;;;;;;4989805;28;21081;-47
2021/05/29 11:03:24;;;;;;;6.00;5.50;;;;;;;;;;4988522;28;21011;-46
2021/05/29 11:05:51;;;;;;;7.63;6.93;;;;;;;;;;4988711;28;20657;-46
2021/05/29 11:08:34;;;;;;;6.57;6.07;;;;;;;;;;4989489;28;20625;-47
2021/05/29 11:11:00;;;;;;;6.77;6.27;;;;;;;;;;4988902;28;20648;-47
2021/05/29 11:13:44;;;;;;;6.60;6.10;;;;;;;;;;4989134;28;20664;-46
2021/05/29 11:16:09;;;;;;;6.17;5.57;;;;;;;;;;4992701;28;20193;-46
2021/05/29 11:18:54;;;;;;;4.70;4.30;;;;;;;;;;4986730;28;21019;-46
2021/05/29 11:21:19;;;;;;;4.27;3.97;;;;;;;;;;4986467;28;20192;-45
2021/05/29 11:23:44;;;;;;;5.30;4.90;;;;;;;;;;4987442;28;20610;-45
2021/05/29 11:26:10;;;;;;;5.43;4.82;;;;;;;;;;4988328;28;20648;-47
2021/05/29 11:28:37;;;;;;;4.70;4.30;;;;;;;;;;4988435;28;20758;-46
2021/05/29 11:31:02;;;;;;;4.97;4.57;;;;;;;;;;4995467;28;20223;-47
2021/05/29 11:33:28;;;;;;;5.10;4.70;;;;;;;;;;4983710;28;20638;-51
2021/05/29 11:35:53;;;;;;;5.55;4.55;;;;;;;;;;4998012;28;20646;-46
2021/05/29 11:38:24;;;;;;;4.80;4.40;;;;;;;;;;4985624;28;20652;-47
2021/05/29 11:40:59;;;;;;;4.60;4.30;;;;;;;;;;5000970;28;20192;-46
2021/05/29 11:43:35;;;;;;;4.17;3.70;;;;;;;;;;4986081;28;20640;-47
2021/05/29 11:46:01;;;;;;;4.30;4.00;;;;;;;;;;4986158;28;20561;-46
2021/05/29 11:48:27;;;;;;;4.83;4.43;;;;;;;;;;4986546;28;20616;-47
2021/05/29 11:51:08;;;;;;;3.90;3.60;;;;;;;;;;5001608;28;21514;-48
2021/05/29 11:53:34;;;;;;;2.70;2.50;;;;;;;;;;4988305;28;20181;-47
2021/05/29 11:56:00;;;;;;;3.20;2.90;;;;;;;;;;4987983;28;20619;-47
2021/05/29 11:58:38;;;;;;;2.60;2.40;;;;;;;;;;4988716;28;20187;-46
2021/05/29 12:01:03;;;;;;;1.90;1.77;;;;;;;;;;4993022;28;20697;-47
2021/05/29 12:03:35;;;;;;;2.75;2.55;;;;;;;;;;4988517;28;20689;-47
2021/05/29 12:06:01;;;;;;;2.47;2.27;;;;;;;;;;4988795;28;20210;-48
2021/05/29 12:08:27;;;;;;;2.23;2.03;;;;;;;;;;4987710;28;20652;-47
2021/05/29 12:10:52;;;;;;;3.53;2.27;;;;;;;;;;4988759;28;20673;-47
2021/05/29 12:13:28;;;;;;;1.97;1.87;;;;;;;;;;4988261;28;20582;-47
2021/05/29 12:15:57;;;;;;;2.20;2.10;;;;;;;;;;4988181;28;20180;-47
2021/05/29 12:18:23;;;;;;;1.83;1.73;;;;;;;;;;4988033;28;20599;-47
2021/05/29 12:20:52;;;;;;;2.00;1.90;;;;;;;;;;4988060;28;20598;-47
2021/05/29 12:23:17;;;;;;;2.57;2.37;;;;;;;;;;4995748;28;20236;-47
2021/05/29 12:25:42;;;;;;;2.90;2.70;;;;;;;;;;5005994;28;20607;-47
2021/05/29 12:28:07;;;;;;;2.80;2.70;;;;;;;;;;4988385;28;20239;-47
2021/05/29 12:30:32;;;;;;;3.03;2.83;;;;;;;;;;4988784;28;20643;-47
2021/05/29 12:32:58;;;;;;;3.07;2.83;;;;;;;;;;4988295;28;20174;-48
2021/05/29 12:35:27;;;;;;;3.70;2.87;;;;;;;;;;4988031;28;20269;-47
2021/05/29 12:37:52;;;;;;;2.33;2.20;;;;;;;;;;4987581;28;20275;-46
2021/05/29 12:40:17;;;;;;;3.50;3.20;;;;;;;;;;4986869;28;20723;-47
2021/05/29 12:42:44;;;;;;;4.33;3.93;;;;;;;;;;4987492;28;20193;-47
2021/05/29 12:45:21;;;;;;;5.00;4.50;;;;;;;;;;4987548;28;20219;-47
2021/05/29 12:47:57;;;;;;;5.30;4.90;;;;;;;;;;4984825;28;20885;-47
2021/05/29 12:50:29;;;;;;;5.27;4.87;;;;;;;;;;4987964;28;20641;-47
2021/05/29 12:53:14;;;;;;;5.57;5.00;;;;;;;;;;4986209;28;20604;-48
2021/05/29 12:55:40;;;;;;;5.07;4.70;;;;;;;;;;4988392;28;21145;-48
2021/05/29 12:58:18;;;;;;;5.67;5.27;;;;;;;;;;4986611;28;20592;-47
2021/05/29 13:00:59;;;;;;;6.77;6.17;;;;;;;;;;4982578;28;20607;-47
2021/05/29 13:09:45;;;;;;;4.10;3.80;;;;;;;;;;4984027;28;20593;-46
2021/05/29 13:12:14;;;;;;;4.40;4.07;;;;;;;;;;4975904;28;21186;-47
2021/05/29 13:14:41;;;;;;;3.80;3.50;;;;;;;;;;4984188;28;21025;-48
2021/05/29 13:17:07;;;;;;;3.20;3.00;;;;;;;;;;4982876;28;20665;-48
2021/05/29 13:19:51;;;;;;;3.43;3.13;;;;;;;;;;4984862;28;21015;-47
2021/05/29 13:22:18;;;;;;;3.70;3.40;;;;;;;;;;4989247;28;20805;-47
2021/05/29 13:24:54;;;;;;;3.37;3.07;;;;;;;;;;4983022;28;20605;-47
2021/05/29 13:27:25;;;;;;;3.20;3.00;;;;;;;;;;4983654;28;20610;-47
2021/05/29 13:29:50;;;;;;;3.43;3.23;;;;;;;;;;4982112;28;20658;-48
2021/05/29 13:32:17;;;;;;;3.90;3.60;;;;;;;;;;4991965;28;20619;-47
2021/05/29 13:34:42;;;;;;;3.67;3.47;;;;;;;;;;4981740;28;20179;-47
2021/05/29 13:37:07;;;;;;;3.20;3.00;;;;;;;;;;4982179;28;20634;-47
2021/05/29 13:39:33;;;;;;;4.00;3.70;;;;;;;;;;4983591;28;20265;-47
2021/05/29 13:42:00;;;;;;;3.67;3.37;;;;;;;;;;4983112;28;20176;-47
2021/05/29 13:44:25;;;;;;;3.57;3.37;;;;;;;;;;4983139;28;20862;-47
2021/05/29 13:46:51;;;;;;;5.43;4.77;;;;;;;;;;4983186;28;20614;-47
2021/05/29 13:49:16;;;;;;;5.70;4.53;;;;;;;;;;4983133;28;20341;-47
2021/05/29 13:51:44;;;;;;;5.32;4.93;;;;;;;;;;5003254;28;20183;-48
2021/05/29 13:54:09;;;;;;;5.83;5.37;;;;;;;;;;4980962;28;20193;-48
2021/05/29 13:56:35;;;;;;;4.97;4.57;;;;;;;;;;4970190;28;20578;-47
2021/05/29 13:59:02;;;;;;;5.00;4.60;;;;;;;;;;4964289;28;20284;-47
2021/05/29 14:01:27;;;;;;;5.93;5.17;;;;;;;;;;4981495;28;21486;-47
2021/05/29 14:03:52;;;;;;;5.10;4.70;;;;;;;;;;4988513;28;20608;-47
2021/05/29 14:06:18;;;;;;;4.88;4.38;;;;;;;;;;5007776;28;20184;-47
2021/05/29 14:08:43;;;;;;;4.40;4.00;;;;;;;;;;4998336;28;20587;-48
2021/05/29 14:11:10;;;;;;;5.30;4.90;;;;;;;;;;4990270;28;20176;-48
2021/05/29 14:13:35;;;;;;;4.80;4.40;;;;;;;;;;4987827;28;20307;-47
2021/05/29 14:16:00;;;;;;;4.88;4.57;;;;;;;;;;4989365;28;20736;-48
2021/05/29 14:18:26;;;;;;;4.78;4.45;;;;;;;;;;4989500;28;20279;-48
2021/05/29 14:20:51;;;;;;;4.90;4.50;;;;;;;;;;4990067;28;20240;-47
2021/05/29 14:23:16;;;;;;;4.93;4.63;;;;;;;;;;4989285;28;20179;-47
2021/05/29 14:25:41;;;;;;;4.95;4.65;;;;;;;;;;4989471;28;20187;-47
2021/05/29 14:28:07;;;;;;;5.70;5.18;;;;;;;;;;4989390;28;20298;-48
2021/05/29 14:30:32;;;;;;;5.40;5.00;;;;;;;;;;4990647;28;20730;-47
2021/05/29 14:32:57;;;;;;;4.47;4.10;;;;;;;;;;4987818;28;20167;-48
2021/05/29 14:35:22;;;;;;;5.90;5.47;;;;;;;;;;4989322;28;20194;-47
2021/05/29 14:37:47;;;;;;;6.03;5.53;;;;;;;;;;4988982;28;20186;-48
2021/05/29 14:40:13;;;;;;;5.70;5.20;;;;;;;;;;4990038;28;20177;-48
2021/05/29 14:42:38;;;;;;;6.67;6.07;;;;;;;;;;4987666;28;20552;-47
2021/05/29 14:45:04;;;;;;;5.77;5.27;;;;;;;;;;4988987;28;20272;-48
2021/05/29 14:47:29;;;;;;;6.80;6.20;;;;;;;;;;4989357;28;20198;-47
2021/05/29 14:49:55;;;;;;;6.28;5.78;;;;;;;;;;4989760;28;21311;-47